createdAt,value
2018-09-28T00:01:21.244Z,3.69
2018-09-28T00:07:22.061Z,2.71
2018-09-28T00:11:22.876Z,3.7
2018-09-28T00:13:23.637Z,3.42
2018-09-28T00:17:24.419Z,3.36
2018-09-28T00:23:25.146Z,2.71
2018-09-28T00:27:26.007Z,2.1
2018-09-28T00:33:26.864Z,2.57
2018-09-28T00:37:27.677Z,3.62
2018-09-28T00:39:28.470Z,4.84
2018-09-28T00:43:29.274Z,3.38
2018-09-28T00:49:30.074Z,4.1
2018-09-28T00:53:30.875Z,2.94
2018-09-28T00:59:31.686Z,5.35
2018-09-28T01:03:32.415Z,4.92
2018-09-28T01:05:33.154Z,2.86
2018-09-28T01:09:33.987Z,4.89
2018-09-28T01:15:35.415Z,4.76
2018-09-28T01:19:36.309Z,4.18
2018-09-28T01:25:37.271Z,4.6
2018-09-28T01:29:38.065Z,4.06
2018-09-28T01:31:38.931Z,6.98
2018-09-28T01:35:39.787Z,3.95
2018-09-28T01:41:40.553Z,5.74
2018-09-28T01:45:41.434Z,5.49
2018-09-28T01:51:42.273Z,4.14
2018-09-28T01:55:42.998Z,3.6
2018-09-28T01:57:43.687Z,6.75
2018-09-28T02:01:44.498Z,5.41
2018-09-28T02:07:45.274Z,3.66
2018-09-28T02:11:46.117Z,4.39
2018-09-28T02:17:46.971Z,4.07
2018-09-28T02:21:47.637Z,4.85
2018-09-28T02:23:48.335Z,4.15
2018-09-28T02:27:49.042Z,3.93
2018-09-28T02:33:49.861Z,3.84
2018-09-28T02:37:50.675Z,4.03
2018-09-28T02:43:51.543Z,5.2
2018-09-28T02:47:52.280Z,2.89
2018-09-28T02:49:53.056Z,4.27
2018-09-28T02:53:53.769Z,3.34
2018-09-28T02:59:54.475Z,3.18
2018-09-28T03:03:55.352Z,2.37
2018-09-28T03:09:56.073Z,3.23
2018-09-28T03:13:56.797Z,3.42
2018-09-28T03:15:57.475Z,5.85
2018-09-28T03:19:58.257Z,6.79
2018-09-28T03:25:59.114Z,4.96
2018-09-28T03:29:59.887Z,4.66
2018-09-28T03:36:00.736Z,4.1
2018-09-28T03:40:01.531Z,4.19
2018-09-28T03:42:02.361Z,3.48
2018-09-28T03:46:03.094Z,3.11
2018-09-28T03:52:03.988Z,3.22
2018-09-28T03:56:04.692Z,3.53
2018-09-28T04:02:05.371Z,2.86
2018-09-28T04:06:06.259Z,2.57
2018-09-28T04:08:06.976Z,4.93
2018-09-28T04:12:07.808Z,3.34
2018-09-28T04:18:08.482Z,3.34
2018-09-28T04:22:09.226Z,3.77
2018-09-28T04:28:10.040Z,5.18
2018-09-28T04:32:10.879Z,5.71
2018-09-28T04:34:11.548Z,6.28
2018-09-28T04:38:12.398Z,5.21
2018-09-28T04:44:13.226Z,6.3
2018-09-28T04:48:13.945Z,5.54
2018-09-28T04:54:14.791Z,4.56
2018-09-28T04:58:15.600Z,5.4
2018-09-28T05:00:16.627Z,5.93
2018-09-28T05:04:17.355Z,8.4
2018-09-28T05:10:18.179Z,6.15
2018-09-28T05:14:18.880Z,8.35
2018-09-28T05:20:19.640Z,6.97
2018-09-28T05:24:20.458Z,5.13
2018-09-28T05:26:23.819Z,5.68
2018-09-28T05:30:24.839Z,5.39
2018-09-28T05:36:25.535Z,9.39
2018-09-28T05:40:26.380Z,8.55
2018-09-28T05:46:27.219Z,7.83
2018-09-28T05:50:28.213Z,6.38
2018-09-28T05:52:28.903Z,15.86
2018-09-28T05:56:29.624Z,22.4
2018-09-28T06:02:30.366Z,6.95
2018-09-28T06:06:31.213Z,5.59
2018-09-28T06:12:32.073Z,8.47
2018-09-28T06:16:32.868Z,5.98
2018-09-28T06:18:33.715Z,5.91
2018-09-28T06:22:34.442Z,5.6
2018-09-28T06:28:35.185Z,7.06
2018-09-28T06:32:35.926Z,7
2018-09-28T06:38:36.635Z,11.13
2018-09-28T06:42:37.532Z,9.28
2018-09-28T06:44:38.378Z,7.7
2018-09-28T06:48:39.104Z,8
2018-09-28T06:54:39.861Z,8.26
2018-09-28T06:58:40.569Z,10.23
2018-09-28T07:04:41.464Z,9.94
2018-09-28T07:08:42.296Z,11.59
2018-09-28T07:10:43.032Z,13.78
2018-09-28T07:14:43.862Z,14.18
2018-09-28T07:20:44.728Z,9.87
2018-09-28T07:24:45.516Z,10.17
2018-09-28T07:30:46.231Z,10.04
2018-09-28T07:34:47.107Z,11.07
2018-09-28T07:36:49.287Z,10.25
2018-09-28T07:40:50.104Z,7.55
2018-09-28T07:46:50.995Z,7.59
2018-09-28T07:50:51.933Z,8.57
2018-09-28T07:56:52.634Z,4.93
2018-09-28T08:00:53.457Z,7.87
2018-09-28T08:02:54.195Z,10.25
2018-09-28T08:06:54.849Z,10.86
2018-09-28T08:12:56.742Z,6.63
2018-09-28T08:16:57.470Z,6.23
2018-09-28T08:22:58.550Z,8.04
2018-09-28T08:26:59.346Z,5.66
2018-09-28T08:29:00.135Z,8.37
2018-09-28T08:33:00.836Z,8.75
2018-09-28T08:39:01.787Z,7.4
2018-09-28T08:43:02.804Z,7.87
2018-09-28T08:49:03.789Z,6.42
2018-09-28T08:53:04.621Z,6.68
2018-09-28T08:59:16.617Z,6.4
2018-09-28T08:59:16.863Z,6.83
2018-09-28T09:05:18.498Z,6.84
2018-09-28T09:09:24.082Z,7.47
2018-09-28T09:15:25.739Z,6.06
2018-09-28T09:19:26.680Z,10.33
2018-09-28T09:25:27.658Z,7.37
2018-09-28T09:31:28.625Z,6.2
2018-09-28T09:35:29.406Z,6.44
2018-09-28T09:41:30.367Z,6.29
2018-09-28T09:45:31.139Z,8.47
2018-09-28T09:51:31.970Z,9.41
2018-09-28T09:57:32.871Z,9.54
2018-09-28T10:01:33.686Z,7.23
2018-09-28T10:07:34.510Z,7.86
2018-09-28T10:11:35.391Z,6.54
2018-09-28T10:17:36.273Z,8.56
2018-09-28T10:23:37.083Z,6.56
2018-09-28T10:27:37.997Z,7.76
2018-09-28T10:33:38.892Z,7.55
2018-09-28T10:37:39.737Z,6.98
2018-09-28T10:43:40.624Z,4.25
2018-09-28T10:49:41.518Z,7.72
2018-09-28T10:53:42.326Z,5.52
2018-09-28T10:59:43.036Z,8.24
2018-09-28T11:03:43.869Z,8.95
2018-09-28T11:09:44.592Z,6.7
2018-09-28T11:15:45.403Z,6.64
2018-09-28T11:19:46.149Z,6.41
2018-09-28T11:25:46.985Z,6.42
2018-09-28T11:29:48.567Z,7.82
2018-09-28T11:31:49.316Z,7.44
2018-09-28T11:35:50.079Z,4.75
2018-09-28T11:41:50.849Z,6.17
2018-09-28T11:45:51.831Z,4.07
2018-09-28T11:51:52.503Z,6.52
2018-09-28T11:55:53.291Z,6.68
2018-09-28T11:57:54.007Z,3.96
2018-09-28T12:01:54.767Z,5.5
2018-09-28T12:07:55.633Z,5.06
2018-09-28T12:11:56.395Z,4.34
2018-09-28T12:17:57.278Z,5.07
2018-09-28T12:21:58.056Z,6.19
2018-09-28T12:23:58.730Z,4.59
2018-09-28T12:27:59.539Z,3.9
2018-09-28T12:34:00.281Z,2.93
2018-09-28T12:38:01.006Z,3.74
2018-09-28T12:44:01.828Z,7.55
2018-09-28T12:48:02.929Z,4.83
2018-09-28T12:50:09.756Z,6.6
2018-09-28T12:54:10.756Z,5.61
2018-09-28T13:00:11.589Z,3.79
2018-09-28T13:04:13.017Z,4.76
2018-09-28T13:10:13.866Z,2.99
2018-09-28T13:14:14.992Z,3.4
2018-09-28T13:16:15.750Z,5.33
2018-09-28T13:20:16.566Z,5.55
2018-09-28T13:26:18.713Z,3.94
2018-09-28T13:30:19.942Z,5.99
2018-09-28T13:36:20.675Z,2.71
2018-09-28T13:40:22.676Z,6.81
2018-09-28T13:46:23.880Z,4.15
2018-09-28T13:52:24.877Z,7.14
2018-09-28T13:56:26.092Z,5.5
2018-09-28T14:02:26.871Z,4.26
2018-09-28T14:06:27.800Z,4.78
2018-09-28T14:08:29.788Z,4.24
2018-09-28T14:12:30.788Z,6.23
2018-09-28T14:18:31.788Z,3.78
2018-09-28T14:22:32.751Z,3.83
2018-09-28T14:28:33.657Z,7.79
2018-09-28T14:32:34.412Z,4.45
2018-09-28T14:34:35.055Z,3.89
2018-09-28T14:38:35.861Z,4.13
2018-09-28T14:44:37.214Z,5.26
2018-09-28T14:48:37.437Z,6.19
2018-09-28T14:54:38.359Z,5.16
2018-09-28T14:58:39.058Z,6.79
2018-09-28T15:00:39.820Z,4.65
2018-09-28T15:04:40.720Z,4.63
2018-09-28T15:10:41.493Z,6.85
2018-09-28T15:14:42.275Z,6.56
2018-09-28T15:20:45.409Z,4.55
2018-09-28T15:24:50.778Z,3.76
2018-09-28T15:30:54.126Z,5.51
2018-09-28T15:36:54.917Z,5.3
2018-09-28T15:41:04.734Z,4.44
2018-09-28T15:51:16.606Z,4.78
2018-09-28T15:51:17.150Z,3.95
2018-09-28T15:57:23.417Z,6.34
2018-09-28T16:01:27.876Z,5.4
2018-09-28T16:07:31.326Z,4.52
2018-09-28T16:13:32.325Z,5.51
2018-09-28T16:17:33.200Z,7.22
2018-09-28T16:27:44.533Z,6.98
2018-09-28T16:27:44.822Z,6.19
2018-09-28T16:33:46.012Z,7.03
2018-09-28T16:37:46.752Z,7.63
2018-09-28T16:39:47.517Z,6.53
2018-09-28T16:43:49.132Z,6.01
2018-09-28T16:49:50.304Z,6.38
2018-09-28T16:53:51.115Z,7.22
2018-09-28T16:59:51.882Z,7.96
2018-09-28T17:03:52.651Z,8.77
2018-09-28T17:05:53.272Z,7.79
2018-09-28T17:09:54.092Z,6.49
2018-09-28T17:15:54.805Z,8.33
2018-09-28T17:19:55.545Z,6.26
2018-09-28T17:26:00.570Z,9.55
2018-09-28T17:29:57.508Z,9.11
2018-09-28T17:31:58.146Z,8.31
2018-09-28T17:35:58.847Z,8.26
2018-09-28T17:41:59.624Z,9.88
2018-09-28T17:46:00.453Z,9.86
2018-09-28T17:52:01.286Z,16.44
2018-09-28T17:58:02.368Z,16.65
2018-09-28T18:02:03.480Z,14.62
2018-09-28T18:08:04.215Z,11.11
2018-09-28T18:12:05.013Z,10.72
2018-09-28T18:18:05.801Z,9.86
2018-09-28T18:24:06.607Z,9.68
2018-09-28T18:34:12.983Z,6.74
2018-09-28T18:34:13.068Z,8.41
2018-09-28T18:38:13.749Z,5.93
2018-09-28T18:44:14.492Z,7
2018-09-28T18:50:15.256Z,13.32
2018-09-28T18:54:15.960Z,10.16
2018-09-28T19:00:17.036Z,10.14
2018-09-28T19:04:17.828Z,6.63
2018-09-28T19:10:18.593Z,8.55
2018-09-28T19:16:19.320Z,10.32
2018-09-28T19:20:20.135Z,8.74
2018-09-28T19:26:20.823Z,8.53
2018-09-28T19:30:22.062Z,10.11
2018-09-28T19:36:22.649Z,6.46
2018-09-28T19:42:23.439Z,6.66
2018-09-28T19:46:29.641Z,7.86
2018-09-28T19:52:30.474Z,5.8
2018-09-28T19:56:35.820Z,6.12
2018-09-28T20:02:36.982Z,8.42
2018-09-28T20:06:37.816Z,10.86
2018-09-28T20:08:38.669Z,9.17
2018-09-28T20:12:39.437Z,8.68
2018-09-28T20:18:40.214Z,11.72
2018-09-28T20:22:41.016Z,8.03
2018-09-28T20:28:41.950Z,14.25
2018-09-28T20:32:42.861Z,11.55
2018-09-28T20:34:43.459Z,9.83
2018-09-28T20:38:44.190Z,9.01
2018-09-28T20:44:45.892Z,10.51
2018-09-28T20:48:45.674Z,9.62
2018-09-28T20:54:46.475Z,8.12
2018-09-28T20:58:47.240Z,5.74
2018-09-28T21:00:47.943Z,14.05
2018-09-28T21:04:48.634Z,15.69
2018-09-28T21:10:49.442Z,9.23
2018-09-28T21:14:50.123Z,9.54
2018-09-28T21:20:50.987Z,13.76
2018-09-28T21:26:52.573Z,15.1
2018-09-28T21:30:53.558Z,13.14
2018-09-28T21:36:58.976Z,16.79
2018-09-28T21:40:59.906Z,13.37
2018-09-28T21:47:00.615Z,14.62
2018-09-28T21:51:01.449Z,17.16
2018-09-28T21:53:02.160Z,13.53
2018-09-28T21:57:03.067Z,14.88
2018-09-28T22:03:03.849Z,13.75
2018-09-28T22:07:04.719Z,17.61
2018-09-28T22:13:05.670Z,10.48
2018-09-28T22:17:06.457Z,11.72
2018-09-28T22:19:07.323Z,11.56
2018-09-28T22:23:08.167Z,11.48
2018-09-28T22:29:09.173Z,12.46
2018-09-28T22:33:10.094Z,13.72
2018-09-28T22:39:16.392Z,9.5
2018-09-28T22:43:17.132Z,10.4
2018-09-28T22:45:18.185Z,9.1
2018-09-28T22:49:19.205Z,11.06
2018-09-28T22:55:19.992Z,10.48
2018-09-28T22:59:20.828Z,9.5
2018-09-28T23:05:21.736Z,9.23
2018-09-28T23:09:22.603Z,9.11
2018-09-28T23:11:23.308Z,12.4
2018-09-28T23:15:24.510Z,9.4
2018-09-28T23:21:25.282Z,8.58
2018-09-28T23:25:26.091Z,9.51
2018-09-28T23:31:26.922Z,10.06
2018-09-28T23:35:28.792Z,9.97
2018-09-28T23:37:29.506Z,11.06
2018-09-28T23:41:30.203Z,10.64
2018-09-28T23:47:31.056Z,9.26
2018-09-28T23:51:31.659Z,13.63
2018-09-28T23:57:32.464Z,8.24
